To NAV CANADA Home Page Login to a new session Search on AWWS site Feedback and Comments Disclaimer Vers la page française équivalente Tips FAQ What's new on the site To the Forecasts and Observations / NOTAM section To "File a Flight Plan" website Publications and other links Update of the User's profile FIC Telephone Numbers My Weather Data Folder Route Weather Data Regional Weather Data Local Weather Data To the Forecasts and Observations / NOTAM section
Request Generated 09/05/2015 at 12:15:02 UTC . Weather information available at that time is displayed.

METAR/TAF

EUREKA/NU    

METAR CWEU 051200Z 16011G18KT 15SM FEW015 OVC060 01/M02 A2989 RMK SC1SC7 SLP123=
METAR CWEU 051100Z 15010KT 15SM FEW015 OVC060 01/M02 A2991 RMK SC1SC7 SLP131=
METAR CWEU 051000Z 16010G15KT 15SM FEW015 OVC050 01/M01 A2994 RMK SC1SC8 SLP140=

TAF CYEU 051038Z 0511/0523 ADVISORY OFFSITE VRB03KT P6SM FEW015
OVC050 TEMPO 0511/0523 VRB15G25KT 4SM -SN BKN015 OVC050
RMK NXT FCST BY 051800Z=
Your time UTC time
Weather data provided by Environment Canada and NAV CANADA